TimeMST,TemperatureF,Dew PointF,Humidity,Sea Level PressureIn,VisibilityMPH,Wind Direction,Wind SpeedMPH,Gust SpeedMPH,PrecipitationIn,Events,Conditions,WindDirDegrees,DateUTC
12:53 AM,10.9,7.0,84,30.38,10.0,SW,5.8,-,N/A,,Clear,230,2013-01-06 07:53:00
1:53 AM,8.1,3.9,83,30.38,10.0,WSW,4.6,-,N/A,,Clear,240,2013-01-06 08:53:00
2:53 AM,10.0,6.1,84,30.36,10.0,SW,10.4,-,N/A,,Clear,230,2013-01-06 09:53:00
3:53 AM,8.1,3.9,83,30.36,10.0,West,3.5,-,N/A,,Clear,260,2013-01-06 10:53:00
5:53 AM,3.0,-0.0,87,30.34,10.0,SSW,4.6,-,N/A,,Clear,210,2013-01-06 12:53:00
6:53 AM,3.9,-0.9,80,30.31,10.0,Calm,Calm,-,N/A,,Clear,0,2013-01-06 13:53:00
7:53 AM,3.9,-0.0,84,30.32,10.0,SW,3.5,-,N/A,,Clear,230,2013-01-06 14:53:00
8:53 AM,12.9,6.1,74,30.28,10.0,SW,3.5,-,N/A,,Clear,230,2013-01-06 15:53:00
9:53 AM,25.0,12.9,60,30.21,9.0,South,4.6,-,N/A,,Clear,190,2013-01-06 16:53:00
10:53 AM,32.0,18.0,56,30.17,10.0,Calm,Calm,-,N/A,,Clear,0,2013-01-06 17:53:00
11:53 AM,41.0,19.0,41,30.10,10.0,WSW,16.1,-,N/A,,Clear,240,2013-01-06 18:53:00
12:53 PM,46.0,21.9,39,30.05,10.0,South,12.7,-,N/A,,Clear,180,2013-01-06 19:53:00
1:53 PM,46.0,24.1,42,30.03,10.0,WSW,4.6,-,N/A,,Clear,250,2013-01-06 20:53:00
2:53 PM,46.0,23.0,40,30.02,10.0,SSW,5.8,-,N/A,,Clear,210,2013-01-06 21:53:00
3:53 PM,39.9,26.1,58,30.02,10.0,SSW,10.4,-,N/A,,Clear,200,2013-01-06 22:53:00
4:53 PM,42.1,23.0,47,30.00,10.0,SSW,17.3,-,N/A,,Clear,200,2013-01-06 23:53:00
5:53 PM,39.9,23.0,51,29.99,10.0,SSW,15.0,-,N/A,,Clear,200,2013-01-07 00:53:00
6:53 PM,41.0,19.9,43,29.98,10.0,SSW,12.7,-,N/A,,Clear,210,2013-01-07 01:53:00
7:53 PM,39.9,19.0,43,30.00,10.0,West,9.2,-,N/A,,Clear,270,2013-01-07 02:53:00
8:53 PM,30.0,19.9,66,30.01,10.0,East,3.5,-,N/A,,Clear,80,2013-01-07 03:53:00
9:53 PM,28.9,19.9,69,30.00,10.0,South,4.6,-,N/A,,Clear,180,2013-01-07 04:53:00
10:53 PM,26.1,19.0,75,29.99,10.0,WSW,3.5,-,N/A,,Clear,250,2013-01-07 05:53:00
11:53 PM,25.0,19.0,78,29.98,10.0,WSW,6.9,-,N/A,,Clear,240,2013-01-07 06:53:00